Time;durP1;ratioP1;P1;durP2;ratioP2;P2;SDS_P1;SDS_P2;PMS_P1;PMS_P2;Temp;Humidity;BMP_temperature;BMP_pressure;BME280_temperature;BME280_humidity;BME280_pressure;Samples;Min_cycle;Max_cycle;Signal;HPM_P1;HPM_P2
2023/05/25 00:02:05;;;;;;;7.90;4.45;;;;;;;22.65;49.86;100455.31;39680794;29;20067;-80
2023/05/25 00:22:06;;;;;;;5.65;5.00;;;;;;;22.55;49.93;100457.03;39669061;29;20071;-85
2023/05/25 00:42:07;;;;;;;6.13;5.40;;;;;;;22.47;50.13;100472.66;39682493;29;20066;-87
2023/05/25 01:02:10;;;;;;;6.32;5.07;;;;;;;22.46;49.09;100473.63;39655781;29;20504;-82
2023/05/25 01:22:31;;;;;;;6.53;5.53;;;;;;;22.34;48.68;100491.28;39694218;29;20055;-81
2023/05/25 01:42:31;;;;;;;6.15;4.90;;;;;;;22.23;49.23;100503.50;39690978;29;20047;-88
2023/05/25 02:02:32;;;;;;;6.93;5.10;;;;;;;22.22;49.78;100498.38;39712229;29;20046;-87
2023/05/25 02:22:33;;;;;;;6.93;5.00;;;;;;;22.11;50.36;100501.03;39671440;29;20913;-85
2023/05/25 02:42:35;;;;;;;9.70;5.90;;;;;;;21.97;50.20;100512.66;39655551;29;20031;-86
2023/05/25 03:02:35;;;;;;;6.68;5.63;;;;;;;21.87;50.13;100520.44;39666842;29;20107;-86
2023/05/25 03:22:36;;;;;;;9.40;6.95;;;;;;;21.74;49.77;100536.41;39670638;29;20509;-87
2023/05/25 03:42:37;;;;;;;8.13;6.60;;;;;;;21.64;50.00;100536.28;39683986;29;20419;-82
2023/05/25 04:02:37;;;;;;;8.65;6.25;;;;;;;21.57;50.00;100543.78;40127674;24;20052;-84
2023/05/25 04:22:38;;;;;;;13.60;6.20;;;;;;;21.75;50.08;100565.25;40355967;24;20038;-80
2023/05/25 04:42:40;;;;;;;6.43;5.05;;;;;;;22.15;50.50;100577.13;39930446;29;20046;-89
2023/05/25 05:02:41;;;;;;;8.95;5.35;;;;;;;22.46;50.74;100579.16;39942266;29;20061;-80
2023/05/25 05:22:42;;;;;;;13.25;4.80;;;;;;;22.63;50.99;100578.66;39821659;29;20042;-83
2023/05/25 05:42:42;;;;;;;24.15;4.72;;;;;;;22.80;50.82;100590.50;39851243;29;20046;-85
2023/05/25 06:02:44;;;;;;;7.50;3.90;;;;;;;22.94;50.77;100607.84;39861979;29;20046;-85
2023/05/25 06:22:45;;;;;;;7.20;4.00;;;;;;;23.08;50.55;100600.59;39880438;29;20059;-86
2023/05/25 06:42:45;;;;;;;6.72;4.18;;;;;;;23.21;50.84;100589.91;39868636;29;20066;-85
2023/05/25 07:02:46;;;;;;;5.03;3.88;;;;;;;23.33;50.57;100604.72;39882759;29;20047;-88
2023/05/25 07:22:47;;;;;;;5.45;3.75;;;;;;;23.41;50.80;100614.66;39866858;29;20050;-86
2023/05/25 07:42:50;;;;;;;3.53;3.22;;;;;;;23.54;50.55;100611.84;39848269;29;20090;-85
2023/05/25 08:02:50;;;;;;;4.97;3.55;;;;;;;23.65;50.53;100623.16;39835329;29;20058;-87
2023/05/25 08:22:54;;;;;;;4.20;3.78;;;;;;;23.82;50.46;100627.00;39851475;29;20411;-85
2023/05/25 08:42:55;;;;;;;4.20;3.80;;;;;;;23.99;50.34;100624.78;39860290;29;20094;-89
2023/05/25 09:03:06;;;;;;;4.22;3.63;;;;;;;24.20;49.82;100622.06;39859079;29;20118;-81
2023/05/25 09:23:07;;;;;;;3.53;3.22;;;;;;;24.30;50.02;100617.69;39852012;29;20041;-83
2023/05/25 09:43:07;;;;;;;4.43;3.78;;;;;;;24.42;49.79;100630.81;39881515;29;20043;-84
2023/05/25 10:03:08;;;;;;;4.88;4.10;;;;;;;24.53;49.62;100632.50;39892320;29;20081;-83
2023/05/25 10:23:11;;;;;;;5.43;4.88;;;;;;;24.66;49.33;100616.38;39872253;29;20046;-85
2023/05/25 10:43:13;;;;;;;5.87;5.27;;;;;;;24.68;49.07;100607.38;39872231;29;20110;-85
2023/05/25 11:03:13;;;;;;;6.50;5.57;;;;;;;24.75;49.23;100600.53;39868843;29;20034;-85
2023/05/25 11:23:23;;;;;;;6.25;5.03;;;;;;;24.88;49.03;100584.38;39880476;29;20077;-82
2023/05/25 11:43:25;;;;;;;7.05;4.68;;;;;;;24.99;49.17;100559.56;39841822;29;20122;-84
2023/05/25 12:03:32;;;;;;;6.90;4.57;;;;;;;25.17;47.97;100527.91;39834796;29;20471;-79
2023/05/25 12:23:33;;;;;;;4.60;4.10;;;;;;;25.29;46.47;100519.78;39854852;29;20153;-79
2023/05/25 12:43:42;;;;;;;8.13;3.78;;;;;;;25.46;46.36;100518.22;39837920;29;20051;-87
2023/05/25 13:03:43;;;;;;;5.32;4.28;;;;;;;25.56;46.49;100505.78;39880102;29;20069;-85
2023/05/25 13:23:43;;;;;;;11.00;4.20;;;;;;;25.68;45.45;100486.06;39867586;29;20050;-83
2023/05/25 13:43:44;;;;;;;7.97;3.60;;;;;;;25.69;45.05;100466.50;39826744;29;20048;-89
2023/05/25 14:03:45;;;;;;;6.13;3.92;;;;;;;25.73;45.19;100443.16;39846047;29;20529;-85
2023/05/25 14:23:45;;;;;;;4.07;3.67;;;;;;;25.81;45.46;100430.00;39862306;29;20460;-85
2023/05/25 14:43:46;;;;;;;4.05;3.45;;;;;;;25.86;45.09;100422.44;39858319;29;20147;-83
2023/05/25 15:03:46;;;;;;;3.45;3.10;;;;;;;25.96;45.07;100406.47;39861638;29;20046;-81
2023/05/25 15:23:47;;;;;;;3.65;3.33;;;;;;;25.98;44.75;100395.72;39840840;29;20050;-84
2023/05/25 15:43:51;;;;;;;4.00;3.42;;;;;;;25.99;45.15;100392.91;39827010;29;20050;-84
2023/05/25 16:03:51;;;;;;;12.02;3.70;;;;;;;25.94;46.18;100395.19;39818086;29;20066;-83
2023/05/25 16:23:52;;;;;;;4.22;3.55;;;;;;;25.98;45.80;100398.38;39821567;29;20130;-85
2023/05/25 16:43:54;;;;;;;3.90;3.50;;;;;;;25.97;45.68;100404.66;39854595;29;20069;-87
2023/05/25 17:03:54;;;;;;;6.60;3.55;;;;;;;25.88;44.54;100407.22;39913083;29;20053;-80
2023/05/25 17:23:55;;;;;;;4.75;3.88;;;;;;;25.69;44.64;100416.13;39854166;29;20616;-85
2023/05/25 17:43:56;;;;;;;6.82;4.18;;;;;;;25.53;44.52;100415.94;39819397;29;20062;-84
2023/05/25 18:03:57;;;;;;;6.82;4.43;;;;;;;25.36;45.01;100415.69;39837360;29;20114;-81
2023/05/25 18:23:57;;;;;;;15.50;5.80;;;;;;;25.22;45.49;100438.19;39853312;29;20103;-82
2023/05/25 18:43:58;;;;;;;8.48;5.07;;;;;;;25.04;45.10;100445.22;39862757;29;20050;-85
2023/05/25 19:03:58;;;;;;;6.22;4.60;;;;;;;25.12;46.65;100481.59;39835485;29;20054;-84
2023/05/25 19:23:59;;;;;;;12.95;4.80;;;;;;;25.16;47.48;100489.13;39822318;29;20053;-81
2023/05/25 19:43:59;;;;;;;7.55;4.60;;;;;;;25.21;47.46;100497.47;39854767;29;20047;-82
2023/05/25 20:04:00;;;;;;;6.90;5.30;;;;;;;24.93;46.60;100507.97;39874734;29;20050;-81
2023/05/25 20:24:01;;;;;;;7.15;5.53;;;;;;;24.72;46.52;100518.72;39878911;29;20046;-82
2023/05/25 20:44:01;;;;;;;8.23;5.00;;;;;;;24.59;46.54;100513.66;39867302;29;20050;-82
2023/05/25 21:04:02;;;;;;;8.07;5.43;;;;;;;24.42;46.50;100514.34;39879638;29;20396;-83
2023/05/25 21:24:04;;;;;;;11.40;6.00;;;;;;;24.27;46.62;100521.84;39878211;29;20096;-80
2023/05/25 21:44:05;;;;;;;7.63;5.13;;;;;;;24.27;46.53;100538.53;39868626;29;20066;-79
2023/05/25 22:04:06;;;;;;;7.90;5.70;;;;;;;24.09;46.85;100533.06;39879589;29;20066;-78
2023/05/25 22:24:06;;;;;;;10.13;5.40;;;;;;;23.92;46.90;100528.38;39880950;29;20050;-78
2023/05/25 22:44:08;;;;;;;8.27;5.32;;;;;;;23.77;47.12;100539.31;39857069;29;20126;-79
2023/05/25 23:04:09;;;;;;;6.72;5.63;;;;;;;23.64;47.19;100522.84;39865331;29;20051;-79
2023/05/25 23:24:09;;;;;;;8.57;5.90;;;;;;;23.50;47.27;100534.59;39824750;29;20055;-80
2023/05/25 23:44:10;;;;;;;8.98;6.15;;;;;;;23.38;47.48;100522.44;39836850;29;20042;-78
